Middleport, NY (14105)

9:53 PM EDT on March 29, 2015 (GMT -0400)
Aves-Apis | | Change Station
CLOSE
Current Station
Personal Weather Station
Location: Middleport, NY
Elevation: 427 ft
Nearby Weather Stations

Elev 427 ft 43.24 °N, 78.49 °W | Updated 4 seconds ago

Overcast
Overcast
41.0 °F
Feels Like 34 °F
N
11.0
Wind Variable Wind from WSW
Gusts 11.0 mph

Today
High -- | Low -- °F
--% Chance of Precip.
Yesterday
High -- | Low -- °F
Precip. -- in
7:01 AM 7:36 PM
Waxing Gibbous, 76% visible
Pressure 29.90 in
Visibility 10.0 miles
Clouds Scattered Clouds 8000 ft
Overcast 13000 ft
Windchill 34 °F
Dew Point 24 °F
Humidity 46%
Rainfall 0.00 in
Snow Depth Not available.
UV 0 out of 12
Pollen 3.80 out of 12
Air Quality Not available.
Flu Activity Not available.
METAR KBUF 300054Z 19016G23KT 10SM SCT080 OVC130 05/M11 A2988 RMK AO2 SLP125 T00501106

More Conditions Fewer Conditions

Pressure 29.90 in
Visibility 10.0 miles
Clouds Scattered Clouds 8000 ft
Overcast 13000 ft
Windchill 34 °F
Dew Point 24 °F
Humidity 46%
Rainfall 0.00 in
Snow Depth Not available.
UV 0 out of 12
Pollen 3.80 out of 12
Air Quality Not available.
Flu Activity Not available.
METAR KBUF 300054Z 19016G23KT 10SM SCT080 OVC130 05/M11 A2988 RMK AO2 SLP125 T00501106

More Conditions Fewer Conditions

10-Day Weather Forecast

Almanac

Astronomy

Mar. 29, 2015 Rise Set
Actual Time
Civil Twilight
Nautical Twilight
Astronomical Twilight
Moon
Length of Visible Light
Length of Day
Tomorrow will be .
, % of the Moon is Illuminated

Today's Extremes

State Highs State Lows

Community

WunderPhotos

Upload Photos

1,809,397 photos uploaded!

WunderBlogs® & News

Nearby

Air Quality

  Air Quality AQ Index Pollutant
Not available.

Snow Depth

Station Depth Elevation

Earthquake Activity

City Distance Mag. Time & Date
Minimum magnitude displayed is 2.5.

Coastal Water Temperatures

Place Temperature

Stations

Nearby Weather Stations

Station Location Temp. Windchill Dew Point Humidity Wind Precip. Elev Updated Type